sensor_id;sensor_type;location;lat;lon;timestamp;P1;durP1;ratioP1;P2;durP2;ratioP2
43905;SDS011;29564;46.622;13.818;2024-01-11T00:00:06;11.38;;;4.25;;
43905;SDS011;29564;46.622;13.818;2024-01-11T00:01:08;11.65;;;4.38;;
43905;SDS011;29564;46.622;13.818;2024-01-11T00:02:11;10.13;;;4.93;;
43905;SDS011;29564;46.622;13.818;2024-01-11T00:03:12;16.00;;;6.38;;
43905;SDS011;29564;46.622;13.818;2024-01-11T00:04:14;21.73;;;6.97;;
43905;SDS011;29564;46.622;13.818;2024-01-11T00:05:16;10.45;;;4.85;;
43905;SDS011;29564;46.622;13.818;2024-01-11T00:06:18;8.75;;;2.55;;
43905;SDS011;29564;46.622;13.818;2024-01-11T00:07:20;8.77;;;3.22;;
43905;SDS011;29564;46.622;13.818;2024-01-11T00:08:21;6.22;;;3.25;;
43905;SDS011;29564;46.622;13.818;2024-01-11T00:09:23;11.43;;;3.47;;
43905;SDS011;29564;46.622;13.818;2024-01-11T00:10:25;6.07;;;3.97;;
43905;SDS011;29564;46.622;13.818;2024-01-11T00:11:27;16.02;;;4.68;;
43905;SDS011;29564;46.622;13.818;2024-01-11T00:12:29;6.60;;;3.65;;
43905;SDS011;29564;46.622;13.818;2024-01-11T00:13:32;8.18;;;3.83;;
43905;SDS011;29564;46.622;13.818;2024-01-11T00:14:34;7.38;;;3.92;;
43905;SDS011;29564;46.622;13.818;2024-01-11T00:15:36;8.68;;;3.58;;
43905;SDS011;29564;46.622;13.818;2024-01-11T00:16:38;7.57;;;3.75;;
43905;SDS011;29564;46.622;13.818;2024-01-11T00:17:40;12.18;;;3.20;;
43905;SDS011;29564;46.622;13.818;2024-01-11T00:18:41;8.80;;;3.33;;
43905;SDS011;29564;46.622;13.818;2024-01-11T00:19:45;3.33;;;1.85;;
43905;SDS011;29564;46.622;13.818;2024-01-11T00:20:49;3.97;;;2.45;;
43905;SDS011;29564;46.622;13.818;2024-01-11T00:21:52;6.70;;;2.72;;
43905;SDS011;29564;46.622;13.818;2024-01-11T00:22:54;5.47;;;2.92;;
43905;SDS011;29564;46.622;13.818;2024-01-11T00:23:56;5.22;;;2.47;;
43905;SDS011;29564;46.622;13.818;2024-01-11T00:24:59;5.88;;;2.88;;
43905;SDS011;29564;46.622;13.818;2024-01-11T00:26:01;5.85;;;2.42;;
43905;SDS011;29564;46.622;13.818;2024-01-11T00:27:03;4.78;;;2.80;;
43905;SDS011;29564;46.622;13.818;2024-01-11T00:28:05;7.00;;;2.55;;
43905;SDS011;29564;46.622;13.818;2024-01-11T00:29:07;4.95;;;1.95;;
43905;SDS011;29564;46.622;13.818;2024-01-11T00:30:09;9.05;;;3.05;;
43905;SDS011;29564;46.622;13.818;2024-01-11T00:31:11;7.22;;;2.50;;
43905;SDS011;29564;46.622;13.818;2024-01-11T00:32:12;8.13;;;3.38;;
43905;SDS011;29564;46.622;13.818;2024-01-11T00:33:14;5.50;;;2.95;;
43905;SDS011;29564;46.622;13.818;2024-01-11T00:34:16;6.40;;;3.28;;
43905;SDS011;29564;46.622;13.818;2024-01-11T00:35:18;8.20;;;2.90;;
43905;SDS011;29564;46.622;13.818;2024-01-11T00:36:19;9.93;;;3.60;;
43905;SDS011;29564;46.622;13.818;2024-01-11T00:37:21;6.95;;;3.35;;
43905;SDS011;29564;46.622;13.818;2024-01-11T00:38:23;6.65;;;4.90;;
43905;SDS011;29564;46.622;13.818;2024-01-11T00:39:25;7.35;;;3.45;;
43905;SDS011;29564;46.622;13.818;2024-01-11T00:40:27;8.40;;;2.88;;
43905;SDS011;29564;46.622;13.818;2024-01-11T00:41:28;4.90;;;2.83;;
43905;SDS011;29564;46.622;13.818;2024-01-11T00:42:30;6.68;;;3.45;;
43905;SDS011;29564;46.622;13.818;2024-01-11T00:43:32;4.93;;;2.55;;
43905;SDS011;29564;46.622;13.818;2024-01-11T00:44:34;7.85;;;3.70;;
43905;SDS011;29564;46.622;13.818;2024-01-11T00:45:36;5.05;;;2.72;;
43905;SDS011;29564;46.622;13.818;2024-01-11T00:46:39;5.30;;;3.28;;
43905;SDS011;29564;46.622;13.818;2024-01-11T00:47:41;10.07;;;2.70;;
43905;SDS011;29564;46.622;13.818;2024-01-11T00:48:43;4.90;;;2.30;;
43905;SDS011;29564;46.622;13.818;2024-01-11T00:49:45;7.65;;;2.85;;
43905;SDS011;29564;46.622;13.818;2024-01-11T00:50:46;7.03;;;2.42;;
43905;SDS011;29564;46.622;13.818;2024-01-11T00:51:48;3.83;;;2.75;;
43905;SDS011;29564;46.622;13.818;2024-01-11T00:52:50;7.07;;;2.80;;
43905;SDS011;29564;46.622;13.818;2024-01-11T00:53:55;9.80;;;3.33;;
43905;SDS011;29564;46.622;13.818;2024-01-11T00:54:56;7.72;;;3.10;;
43905;SDS011;29564;46.622;13.818;2024-01-11T00:55:58;5.03;;;2.92;;
43905;SDS011;29564;46.622;13.818;2024-01-11T00:57:00;4.15;;;2.47;;
43905;SDS011;29564;46.622;13.818;2024-01-11T00:58:02;4.32;;;2.17;;
43905;SDS011;29564;46.622;13.818;2024-01-11T00:59:04;8.30;;;2.75;;
43905;SDS011;29564;46.622;13.818;2024-01-11T01:00:06;3.92;;;2.40;;
43905;SDS011;29564;46.622;13.818;2024-01-11T01:01:08;9.35;;;2.08;;
43905;SDS011;29564;46.622;13.818;2024-01-11T01:02:10;4.90;;;2.25;;
43905;SDS011;29564;46.622;13.818;2024-01-11T01:03:12;7.95;;;2.78;;
43905;SDS011;29564;46.622;13.818;2024-01-11T01:04:15;4.07;;;2.70;;
43905;SDS011;29564;46.622;13.818;2024-01-11T01:05:17;5.07;;;2.90;;
43905;SDS011;29564;46.622;13.818;2024-01-11T01:06:19;4.22;;;2.67;;
43905;SDS011;29564;46.622;13.818;2024-01-11T01:07:20;10.55;;;4.15;;
43905;SDS011;29564;46.622;13.818;2024-01-11T01:08:22;15.38;;;3.80;;
43905;SDS011;29564;46.622;13.818;2024-01-11T01:09:27;8.23;;;3.90;;
43905;SDS011;29564;46.622;13.818;2024-01-11T01:10:29;10.27;;;3.83;;
43905;SDS011;29564;46.622;13.818;2024-01-11T01:11:31;5.93;;;2.95;;
43905;SDS011;29564;46.622;13.818;2024-01-11T01:12:33;8.60;;;4.10;;
43905;SDS011;29564;46.622;13.818;2024-01-11T01:13:35;6.70;;;3.85;;
43905;SDS011;29564;46.622;13.818;2024-01-11T01:14:36;9.43;;;2.53;;
43905;SDS011;29564;46.622;13.818;2024-01-11T01:15:38;3.65;;;2.80;;
43905;SDS011;29564;46.622;13.818;2024-01-11T01:16:40;3.53;;;2.13;;
43905;SDS011;29564;46.622;13.818;2024-01-11T01:17:42;5.50;;;2.80;;
43905;SDS011;29564;46.622;13.818;2024-01-11T01:18:44;2.95;;;1.80;;
43905;SDS011;29564;46.622;13.818;2024-01-11T01:19:46;11.25;;;3.33;;
43905;SDS011;29564;46.622;13.818;2024-01-11T01:20:48;7.57;;;2.55;;
43905;SDS011;29564;46.622;13.818;2024-01-11T01:21:49;6.22;;;2.42;;
43905;SDS011;29564;46.622;13.818;2024-01-11T01:22:51;5.60;;;2.25;;
43905;SDS011;29564;46.622;13.818;2024-01-11T01:23:53;4.60;;;2.65;;
43905;SDS011;29564;46.622;13.818;2024-01-11T01:24:55;7.32;;;3.20;;
43905;SDS011;29564;46.622;13.818;2024-01-11T01:25:59;8.82;;;2.30;;
43905;SDS011;29564;46.622;13.818;2024-01-11T01:27:01;4.38;;;2.55;;
43905;SDS011;29564;46.622;13.818;2024-01-11T01:28:03;4.70;;;2.20;;
43905;SDS011;29564;46.622;13.818;2024-01-11T01:29:04;7.97;;;2.88;;
43905;SDS011;29564;46.622;13.818;2024-01-11T01:30:06;10.50;;;2.17;;
43905;SDS011;29564;46.622;13.818;2024-01-11T01:31:09;5.47;;;2.58;;
43905;SDS011;29564;46.622;13.818;2024-01-11T01:32:11;9.35;;;3.08;;
43905;SDS011;29564;46.622;13.818;2024-01-11T01:33:18;1.88;;;1.45;;
43905;SDS011;29564;46.622;13.818;2024-01-11T01:34:19;3.28;;;1.50;;
43905;SDS011;29564;46.622;13.818;2024-01-11T01:35:21;7.07;;;3.17;;
43905;SDS011;29564;46.622;13.818;2024-01-11T01:36:23;4.00;;;2.30;;
43905;SDS011;29564;46.622;13.818;2024-01-11T01:37:25;5.45;;;3.10;;
43905;SDS011;29564;46.622;13.818;2024-01-11T01:38:27;8.68;;;3.17;;
43905;SDS011;29564;46.622;13.818;2024-01-11T01:39:31;3.20;;;1.73;;
43905;SDS011;29564;46.622;13.818;2024-01-11T01:40:33;4.28;;;2.50;;
43905;SDS011;29564;46.622;13.818;2024-01-11T01:41:35;9.35;;;2.58;;
43905;SDS011;29564;46.622;13.818;2024-01-11T01:42:43;9.23;;;3.30;;
43905;SDS011;29564;46.622;13.818;2024-01-11T01:43:45;6.95;;;4.45;;
43905;SDS011;29564;46.622;13.818;2024-01-11T01:44:46;5.97;;;3.08;;
43905;SDS011;29564;46.622;13.818;2024-01-11T01:45:48;4.35;;;2.47;;
43905;SDS011;29564;46.622;13.818;2024-01-11T01:46:51;3.38;;;2.20;;
43905;SDS011;29564;46.622;13.818;2024-01-11T01:47:52;8.95;;;3.42;;
43905;SDS011;29564;46.622;13.818;2024-01-11T01:48:56;6.53;;;2.17;;
43905;SDS011;29564;46.622;13.818;2024-01-11T01:49:58;3.65;;;2.42;;
43905;SDS011;29564;46.622;13.818;2024-01-11T01:51:00;6.15;;;3.25;;
43905;SDS011;29564;46.622;13.818;2024-01-11T01:52:02;3.58;;;1.73;;
43905;SDS011;29564;46.622;13.818;2024-01-11T01:53:04;5.03;;;2.60;;
43905;SDS011;29564;46.622;13.818;2024-01-11T01:54:06;4.25;;;2.42;;
43905;SDS011;29564;46.622;13.818;2024-01-11T01:55:08;6.85;;;2.63;;
43905;SDS011;29564;46.622;13.818;2024-01-11T01:56:11;9.40;;;2.75;;
43905;SDS011;29564;46.622;13.818;2024-01-11T01:57:13;4.45;;;2.90;;
43905;SDS011;29564;46.622;13.818;2024-01-11T01:58:15;4.80;;;2.65;;
43905;SDS011;29564;46.622;13.818;2024-01-11T01:59:17;7.18;;;2.03;;
43905;SDS011;29564;46.622;13.818;2024-01-11T02:00:20;3.90;;;2.65;;
43905;SDS011;29564;46.622;13.818;2024-01-11T02:01:22;2.13;;;1.92;;
43905;SDS011;29564;46.622;13.818;2024-01-11T02:02:24;6.32;;;1.90;;
43905;SDS011;29564;46.622;13.818;2024-01-11T02:03:29;5.55;;;2.55;;
43905;SDS011;29564;46.622;13.818;2024-01-11T02:04:31;10.15;;;2.00;;
43905;SDS011;29564;46.622;13.818;2024-01-11T02:05:35;6.15;;;2.20;;
43905;SDS011;29564;46.622;13.818;2024-01-11T02:06:38;4.55;;;1.90;;
43905;SDS011;29564;46.622;13.818;2024-01-11T02:07:40;3.88;;;2.03;;
43905;SDS011;29564;46.622;13.818;2024-01-11T02:08:42;3.92;;;1.92;;
43905;SDS011;29564;46.622;13.818;2024-01-11T02:09:47;6.32;;;2.25;;
43905;SDS011;29564;46.622;13.818;2024-01-11T02:10:49;6.95;;;2.13;;
43905;SDS011;29564;46.622;13.818;2024-01-11T02:12:01;8.80;;;2.92;;
43905;SDS011;29564;46.622;13.818;2024-01-11T02:13:25;2.75;;;2.03;;
43905;SDS011;29564;46.622;13.818;2024-01-11T02:14:32;4.22;;;1.33;;
43905;SDS011;29564;46.622;13.818;2024-01-11T02:15:44;2.63;;;1.50;;
43905;SDS011;29564;46.622;13.818;2024-01-11T02:17:01;5.25;;;1.52;;
43905;SDS011;29564;46.622;13.818;2024-01-11T02:18:10;1.98;;;1.40;;
43905;SDS011;29564;46.622;13.818;2024-01-11T02:19:18;3.67;;;1.88;;
43905;SDS011;29564;46.622;13.818;2024-01-11T02:20:39;2.15;;;1.85;;
43905;SDS011;29564;46.622;13.818;2024-01-11T02:22:05;2.90;;;1.05;;
43905;SDS011;29564;46.622;13.818;2024-01-11T02:23:14;3.60;;;1.35;;
43905;SDS011;29564;46.622;13.818;2024-01-11T02:24:29;4.60;;;1.85;;
43905;SDS011;29564;46.622;13.818;2024-01-11T02:25:38;2.80;;;1.58;;
43905;SDS011;29564;46.622;13.818;2024-01-11T02:26:59;2.25;;;1.20;;
43905;SDS011;29564;46.622;13.818;2024-01-11T02:28:17;5.57;;;2.05;;
43905;SDS011;29564;46.622;13.818;2024-01-11T02:29:24;2.75;;;1.92;;
43905;SDS011;29564;46.622;13.818;2024-01-11T02:30:26;4.68;;;2.13;;
43905;SDS011;29564;46.622;13.818;2024-01-11T02:31:33;4.25;;;3.42;;
43905;SDS011;29564;46.622;13.818;2024-01-11T02:32:42;5.75;;;1.85;;
43905;SDS011;29564;46.622;13.818;2024-01-11T02:34:08;12.70;;;3.75;;
43905;SDS011;29564;46.622;13.818;2024-01-11T02:35:12;5.57;;;3.63;;
43905;SDS011;29564;46.622;13.818;2024-01-11T02:36:14;5.57;;;3.17;;
43905;SDS011;29564;46.622;13.818;2024-01-11T02:37:24;4.93;;;2.33;;
43905;SDS011;29564;46.622;13.818;2024-01-11T02:38:28;4.30;;;2.95;;
43905;SDS011;29564;46.622;13.818;2024-01-11T02:39:39;4.28;;;3.05;;
43905;SDS011;29564;46.622;13.818;2024-01-11T02:40:45;5.47;;;2.63;;
43905;SDS011;29564;46.622;13.818;2024-01-11T02:41:54;8.15;;;2.70;;
43905;SDS011;29564;46.622;13.818;2024-01-11T02:43:09;5.03;;;2.90;;
43905;SDS011;29564;46.622;13.818;2024-01-11T02:44:13;8.55;;;3.03;;
43905;SDS011;29564;46.622;13.818;2024-01-11T02:45:20;8.35;;;3.28;;
43905;SDS011;29564;46.622;13.818;2024-01-11T02:46:22;7.90;;;3.63;;
43905;SDS011;29564;46.622;13.818;2024-01-11T02:47:26;6.18;;;4.07;;
43905;SDS011;29564;46.622;13.818;2024-01-11T02:48:50;4.97;;;3.58;;
43905;SDS011;29564;46.622;13.818;2024-01-11T02:50:02;3.95;;;3.42;;
43905;SDS011;29564;46.622;13.818;2024-01-11T02:52:44;8.48;;;3.67;;
43905;SDS011;29564;46.622;13.818;2024-01-11T02:53:54;6.65;;;3.55;;
43905;SDS011;29564;46.622;13.818;2024-01-11T02:55:07;5.80;;;4.00;;
43905;SDS011;29564;46.622;13.818;2024-01-11T02:56:10;5.68;;;5.15;;
43905;SDS011;29564;46.622;13.818;2024-01-11T02:57:17;7.00;;;3.60;;
43905;SDS011;29564;46.622;13.818;2024-01-11T02:58:33;5.50;;;3.65;;
43905;SDS011;29564;46.622;13.818;2024-01-11T03:00:53;7.22;;;3.38;;
43905;SDS011;29564;46.622;13.818;2024-01-11T03:01:57;8.55;;;3.78;;
43905;SDS011;29564;46.622;13.818;2024-01-11T03:02:59;9.13;;;4.30;;
43905;SDS011;29564;46.622;13.818;2024-01-11T03:04:16;11.13;;;3.50;;
43905;SDS011;29564;46.622;13.818;2024-01-11T03:05:21;8.52;;;4.40;;
43905;SDS011;29564;46.622;13.818;2024-01-11T03:06:23;7.78;;;4.05;;
43905;SDS011;29564;46.622;13.818;2024-01-11T03:07:48;4.78;;;3.45;;
43905;SDS011;29564;46.622;13.818;2024-01-11T03:09:56;2.60;;;2.35;;
43905;SDS011;29564;46.622;13.818;2024-01-11T03:11:11;5.22;;;2.70;;
43905;SDS011;29564;46.622;13.818;2024-01-11T03:12:21;2.88;;;2.05;;
43905;SDS011;29564;46.622;13.818;2024-01-11T03:13:33;15.90;;;4.63;;
43905;SDS011;29564;46.622;13.818;2024-01-11T03:14:35;5.75;;;3.15;;
43905;SDS011;29564;46.622;13.818;2024-01-11T03:15:45;6.95;;;2.92;;
43905;SDS011;29564;46.622;13.818;2024-01-11T03:16:49;8.07;;;3.13;;
43905;SDS011;29564;46.622;13.818;2024-01-11T03:22:44;5.65;;;2.42;;
43905;SDS011;29564;46.622;13.818;2024-01-11T03:23:46;4.72;;;3.03;;
43905;SDS011;29564;46.622;13.818;2024-01-11T03:24:51;6.72;;;3.60;;
43905;SDS011;29564;46.622;13.818;2024-01-11T03:26:14;5.18;;;3.55;;
43905;SDS011;29564;46.622;13.818;2024-01-11T03:27:22;4.60;;;1.77;;
43905;SDS011;29564;46.622;13.818;2024-01-11T03:28:26;14.45;;;3.63;;
43905;SDS011;29564;46.622;13.818;2024-01-11T03:29:28;4.85;;;2.83;;
43905;SDS011;29564;46.622;13.818;2024-01-11T03:30:30;11.35;;;4.20;;
43905;SDS011;29564;46.622;13.818;2024-01-11T03:31:40;8.95;;;3.80;;
43905;SDS011;29564;46.622;13.818;2024-01-11T03:32:48;6.22;;;3.17;;
43905;SDS011;29564;46.622;13.818;2024-01-11T03:33:50;6.72;;;3.40;;
43905;SDS011;29564;46.622;13.818;2024-01-11T03:36:09;6.75;;;3.35;;
43905;SDS011;29564;46.622;13.818;2024-01-11T03:37:29;9.25;;;2.80;;
43905;SDS011;29564;46.622;13.818;2024-01-11T03:39:35;5.30;;;3.75;;
43905;SDS011;29564;46.622;13.818;2024-01-11T03:40:49;9.27;;;2.95;;
43905;SDS011;29564;46.622;13.818;2024-01-11T03:41:58;5.65;;;3.22;;
43905;SDS011;29564;46.622;13.818;2024-01-11T03:43:08;7.78;;;4.07;;
43905;SDS011;29564;46.622;13.818;2024-01-11T03:44:10;7.20;;;3.78;;
43905;SDS011;29564;46.622;13.818;2024-01-11T03:45:29;4.75;;;3.40;;
43905;SDS011;29564;46.622;13.818;2024-01-11T03:46:31;5.97;;;2.00;;
43905;SDS011;29564;46.622;13.818;2024-01-11T03:47:45;2.97;;;1.80;;
43905;SDS011;29564;46.622;13.818;2024-01-11T03:48:55;3.22;;;2.13;;
43905;SDS011;29564;46.622;13.818;2024-01-11T03:50:09;4.10;;;3.13;;
43905;SDS011;29564;46.622;13.818;2024-01-11T03:51:13;4.25;;;2.85;;
43905;SDS011;29564;46.622;13.818;2024-01-11T03:52:15;2.80;;;1.65;;
43905;SDS011;29564;46.622;13.818;2024-01-11T03:53:20;3.03;;;1.85;;
43905;SDS011;29564;46.622;13.818;2024-01-11T03:54:21;4.90;;;3.08;;
43905;SDS011;29564;46.622;13.818;2024-01-11T03:55:45;4.28;;;1.80;;
43905;SDS011;29564;46.622;13.818;2024-01-11T03:56:57;4.18;;;1.50;;
43905;SDS011;29564;46.622;13.818;2024-01-11T03:58:12;3.55;;;2.42;;
43905;SDS011;29564;46.622;13.818;2024-01-11T03:59:20;3.05;;;2.47;;
43905;SDS011;29564;46.622;13.818;2024-01-11T04:00:48;6.30;;;3.05;;
43905;SDS011;29564;46.622;13.818;2024-01-11T04:02:09;4.85;;;3.17;;
43905;SDS011;29564;46.622;13.818;2024-01-11T04:03:32;2.42;;;1.85;;
43905;SDS011;29564;46.622;13.818;2024-01-11T04:04:37;4.53;;;2.75;;
43905;SDS011;29564;46.622;13.818;2024-01-11T04:05:44;5.53;;;2.80;;
43905;SDS011;29564;46.622;13.818;2024-01-11T04:06:51;6.03;;;3.10;;
43905;SDS011;29564;46.622;13.818;2024-01-11T04:08:38;7.25;;;2.97;;
43905;SDS011;29564;46.622;13.818;2024-01-11T04:09:28;5.25;;;2.97;;
43905;SDS011;29564;46.622;13.818;2024-01-11T04:10:33;6.38;;;2.80;;
43905;SDS011;29564;46.622;13.818;2024-01-11T04:11:44;8.85;;;4.07;;
43905;SDS011;29564;46.622;13.818;2024-01-11T04:12:53;5.30;;;3.38;;
43905;SDS011;29564;46.622;13.818;2024-01-11T04:14:08;2.78;;;2.08;;
43905;SDS011;29564;46.622;13.818;2024-01-11T04:15:26;10.25;;;4.25;;
43905;SDS011;29564;46.622;13.818;2024-01-11T04:16:46;7.47;;;3.72;;
43905;SDS011;29564;46.622;13.818;2024-01-11T04:17:50;2.45;;;1.92;;
43905;SDS011;29564;46.622;13.818;2024-01-11T04:18:52;13.30;;;4.07;;
43905;SDS011;29564;46.622;13.818;2024-01-11T04:19:54;2.95;;;2.45;;
43905;SDS011;29564;46.622;13.818;2024-01-11T04:23:20;2.78;;;2.47;;
43905;SDS011;29564;46.622;13.818;2024-01-11T04:24:26;2.55;;;2.15;;
43905;SDS011;29564;46.622;13.818;2024-01-11T04:27:02;4.95;;;2.03;;
43905;SDS011;29564;46.622;13.818;2024-01-11T04:28:12;8.15;;;2.25;;
43905;SDS011;29564;46.622;13.818;2024-01-11T04:29:31;3.72;;;2.47;;
43905;SDS011;29564;46.622;13.818;2024-01-11T04:30:36;3.75;;;2.25;;
43905;SDS011;29564;46.622;13.818;2024-01-11T04:31:44;7.43;;;2.50;;
43905;SDS011;29564;46.622;13.818;2024-01-11T04:32:48;4.10;;;2.10;;
43905;SDS011;29564;46.622;13.818;2024-01-11T04:33:49;7.50;;;2.83;;
43905;SDS011;29564;46.622;13.818;2024-01-11T04:36:15;5.57;;;3.80;;
43905;SDS011;29564;46.622;13.818;2024-01-11T04:38:35;8.38;;;2.28;;
43905;SDS011;29564;46.622;13.818;2024-01-11T04:39:45;4.88;;;1.80;;
43905;SDS011;29564;46.622;13.818;2024-01-11T04:40:57;5.30;;;2.67;;
43905;SDS011;29564;46.622;13.818;2024-01-11T04:42:06;2.60;;;2.08;;
43905;SDS011;29564;46.622;13.818;2024-01-11T04:43:11;4.22;;;2.03;;
43905;SDS011;29564;46.622;13.818;2024-01-11T04:45:50;2.58;;;2.15;;
43905;SDS011;29564;46.622;13.818;2024-01-11T04:46:59;5.07;;;1.20;;
43905;SDS011;29564;46.622;13.818;2024-01-11T04:48:20;5.93;;;2.13;;
43905;SDS011;29564;46.622;13.818;2024-01-11T04:49:28;6.07;;;2.30;;
43905;SDS011;29564;46.622;13.818;2024-01-11T04:50:29;5.32;;;2.28;;
43905;SDS011;29564;46.622;13.818;2024-01-11T04:51:33;4.72;;;1.40;;
43905;SDS011;29564;46.622;13.818;2024-01-11T04:52:46;2.78;;;2.13;;
43905;SDS011;29564;46.622;13.818;2024-01-11T04:55:09;4.43;;;1.60;;
43905;SDS011;29564;46.622;13.818;2024-01-11T04:56:13;6.93;;;2.10;;
43905;SDS011;29564;46.622;13.818;2024-01-11T04:57:17;7.97;;;2.22;;
43905;SDS011;29564;46.622;13.818;2024-01-11T04:58:19;4.32;;;2.47;;
43905;SDS011;29564;46.622;13.818;2024-01-11T04:59:34;2.72;;;1.95;;
43905;SDS011;29564;46.622;13.818;2024-01-11T05:00:42;5.97;;;2.28;;
43905;SDS011;29564;46.622;13.818;2024-01-11T05:01:45;3.45;;;1.58;;
43905;SDS011;29564;46.622;13.818;2024-01-11T05:02:46;3.25;;;2.30;;
43905;SDS011;29564;46.622;13.818;2024-01-11T05:03:48;5.30;;;2.30;;
43905;SDS011;29564;46.622;13.818;2024-01-11T05:04:53;7.78;;;3.42;;
43905;SDS011;29564;46.622;13.818;2024-01-11T05:06:03;6.47;;;2.83;;
43905;SDS011;29564;46.622;13.818;2024-01-11T05:07:13;6.60;;;2.45;;
43905;SDS011;29564;46.622;13.818;2024-01-11T05:08:17;5.03;;;2.53;;
43905;SDS011;29564;46.622;13.818;2024-01-11T05:09:35;3.55;;;2.17;;
43905;SDS011;29564;46.622;13.818;2024-01-11T05:10:50;8.60;;;3.13;;
43905;SDS011;29564;46.622;13.818;2024-01-11T05:11:54;7.68;;;3.10;;
43905;SDS011;29564;46.622;13.818;2024-01-11T05:13:02;9.52;;;2.97;;
43905;SDS011;29564;46.622;13.818;2024-01-11T05:14:14;3.20;;;2.00;;
43905;SDS011;29564;46.622;13.818;2024-01-11T05:15:24;3.10;;;2.13;;
43905;SDS011;29564;46.622;13.818;2024-01-11T05:16:46;8.35;;;3.13;;
43905;SDS011;29564;46.622;13.818;2024-01-11T05:17:54;6.38;;;2.03;;
43905;SDS011;29564;46.622;13.818;2024-01-11T05:19:00;3.80;;;2.25;;
43905;SDS011;29564;46.622;13.818;2024-01-11T05:20:15;4.03;;;1.98;;
43905;SDS011;29564;46.622;13.818;2024-01-11T05:21:30;5.47;;;2.47;;
43905;SDS011;29564;46.622;13.818;2024-01-11T05:22:53;6.30;;;2.35;;
43905;SDS011;29564;46.622;13.818;2024-01-11T05:25:32;5.57;;;2.08;;
43905;SDS011;29564;46.622;13.818;2024-01-11T05:26:36;5.90;;;1.98;;
43905;SDS011;29564;46.622;13.818;2024-01-11T05:27:38;8.23;;;4.90;;
43905;SDS011;29564;46.622;13.818;2024-01-11T05:28:39;23.15;;;8.25;;
43905;SDS011;29564;46.622;13.818;2024-01-11T05:29:41;30.08;;;11.35;;
43905;SDS011;29564;46.622;13.818;2024-01-11T05:30:49;52.65;;;16.77;;
43905;SDS011;29564;46.622;13.818;2024-01-11T05:31:51;34.88;;;13.85;;
43905;SDS011;29564;46.622;13.818;2024-01-11T05:32:52;25.45;;;12.63;;
43905;SDS011;29564;46.622;13.818;2024-01-11T05:33:54;38.22;;;15.43;;
43905;SDS011;29564;46.622;13.818;2024-01-11T05:34:56;45.42;;;12.70;;
43905;SDS011;29564;46.622;13.818;2024-01-11T05:35:57;28.95;;;10.98;;
43905;SDS011;29564;46.622;13.818;2024-01-11T05:36:59;23.67;;;9.70;;
43905;SDS011;29564;46.622;13.818;2024-01-11T05:38:01;34.58;;;11.57;;
43905;SDS011;29564;46.622;13.818;2024-01-11T05:39:06;14.07;;;7.95;;
43905;SDS011;29564;46.622;13.818;2024-01-11T19:10:23;19.08;;;7.72;;
43905;SDS011;29564;46.622;13.818;2024-01-11T19:18:32;21.15;;;8.50;;
43905;SDS011;29564;46.622;13.818;2024-01-11T19:33:48;8.30;;;3.55;;
43905;SDS011;29564;46.622;13.818;2024-01-11T19:34:53;8.77;;;5.55;;
43905;SDS011;29564;46.622;13.818;2024-01-11T19:36:19;6.70;;;2.95;;
43905;SDS011;29564;46.622;13.818;2024-01-11T19:42:11;17.08;;;6.97;;
43905;SDS011;29564;46.622;13.818;2024-01-11T19:43:14;14.43;;;5.72;;
43905;SDS011;29564;46.622;13.818;2024-01-11T19:45:38;8.98;;;4.70;;
43905;SDS011;29564;46.622;13.818;2024-01-11T19:58:01;8.88;;;4.38;;
43905;SDS011;29564;46.622;13.818;2024-01-11T19:59:04;10.68;;;4.75;;
43905;SDS011;29564;46.622;13.818;2024-01-11T20:01:45;14.98;;;5.63;;
43905;SDS011;29564;46.622;13.818;2024-01-11T20:04:24;18.77;;;5.47;;
43905;SDS011;29564;46.622;13.818;2024-01-11T20:28:30;10.68;;;3.08;;
43905;SDS011;29564;46.622;13.818;2024-01-11T20:29:34;6.95;;;3.63;;
43905;SDS011;29564;46.622;13.818;2024-01-11T20:30:42;5.47;;;3.17;;
43905;SDS011;29564;46.622;13.818;2024-01-11T20:32:20;5.95;;;2.97;;
43905;SDS011;29564;46.622;13.818;2024-01-11T20:57:28;15.93;;;6.45;;
43905;SDS011;29564;46.622;13.818;2024-01-11T20:59:42;8.30;;;4.03;;
43905;SDS011;29564;46.622;13.818;2024-01-11T21:03:07;10.48;;;4.07;;
43905;SDS011;29564;46.622;13.818;2024-01-11T21:05:34;18.30;;;5.90;;
43905;SDS011;29564;46.622;13.818;2024-01-11T21:06:37;15.63;;;5.38;;
43905;SDS011;29564;46.622;13.818;2024-01-11T21:07:39;14.02;;;7.05;;
43905;SDS011;29564;46.622;13.818;2024-01-11T21:08:41;14.55;;;5.68;;
43905;SDS011;29564;46.622;13.818;2024-01-11T21:09:43;26.85;;;10.30;;
43905;SDS011;29564;46.622;13.818;2024-01-11T21:10:45;31.38;;;10.98;;
43905;SDS011;29564;46.622;13.818;2024-01-11T21:11:47;21.98;;;10.25;;
43905;SDS011;29564;46.622;13.818;2024-01-11T21:12:49;25.25;;;7.72;;
43905;SDS011;29564;46.622;13.818;2024-01-11T21:13:52;24.30;;;8.48;;
43905;SDS011;29564;46.622;13.818;2024-01-11T21:14:57;22.73;;;9.13;;
43905;SDS011;29564;46.622;13.818;2024-01-11T21:16:02;17.15;;;8.05;;
43905;SDS011;29564;46.622;13.818;2024-01-11T21:17:04;21.35;;;9.15;;
43905;SDS011;29564;46.622;13.818;2024-01-11T21:18:09;22.90;;;9.13;;
43905;SDS011;29564;46.622;13.818;2024-01-11T21:19:11;22.77;;;8.60;;
43905;SDS011;29564;46.622;13.818;2024-01-11T21:20:13;33.05;;;8.68;;
43905;SDS011;29564;46.622;13.818;2024-01-11T21:21:15;18.05;;;6.70;;
43905;SDS011;29564;46.622;13.818;2024-01-11T21:22:21;16.60;;;7.30;;
43905;SDS011;29564;46.622;13.818;2024-01-11T21:23:26;18.55;;;7.53;;
43905;SDS011;29564;46.622;13.818;2024-01-11T21:24:28;13.45;;;4.78;;
43905;SDS011;29564;46.622;13.818;2024-01-11T21:25:33;16.80;;;6.07;;
43905;SDS011;29564;46.622;13.818;2024-01-11T21:26:35;13.23;;;5.70;;
43905;SDS011;29564;46.622;13.818;2024-01-11T21:27:36;14.00;;;6.30;;
43905;SDS011;29564;46.622;13.818;2024-01-11T21:28:38;15.48;;;6.50;;
43905;SDS011;29564;46.622;13.818;2024-01-11T21:29:40;14.15;;;5.78;;
43905;SDS011;29564;46.622;13.818;2024-01-11T21:30:42;11.85;;;5.55;;
43905;SDS011;29564;46.622;13.818;2024-01-11T21:31:44;18.35;;;6.05;;
43905;SDS011;29564;46.622;13.818;2024-01-11T21:32:46;20.85;;;9.15;;
43905;SDS011;29564;46.622;13.818;2024-01-11T21:33:48;19.15;;;7.75;;
43905;SDS011;29564;46.622;13.818;2024-01-11T21:34:52;19.48;;;6.82;;
43905;SDS011;29564;46.622;13.818;2024-01-11T21:35:54;17.45;;;7.40;;
43905;SDS011;29564;46.622;13.818;2024-01-11T21:36:56;17.73;;;7.90;;
43905;SDS011;29564;46.622;13.818;2024-01-11T21:38:00;15.43;;;7.53;;
43905;SDS011;29564;46.622;13.818;2024-01-11T21:39:02;24.52;;;7.53;;
43905;SDS011;29564;46.622;13.818;2024-01-11T21:40:04;13.27;;;5.97;;
43905;SDS011;29564;46.622;13.818;2024-01-11T21:41:06;9.88;;;6.35;;
43905;SDS011;29564;46.622;13.818;2024-01-11T21:42:08;13.43;;;6.40;;
43905;SDS011;29564;46.622;13.818;2024-01-11T21:43:10;15.70;;;5.97;;
43905;SDS011;29564;46.622;13.818;2024-01-11T21:44:12;14.30;;;5.70;;
43905;SDS011;29564;46.622;13.818;2024-01-11T21:45:14;14.23;;;7.18;;
43905;SDS011;29564;46.622;13.818;2024-01-11T21:46:16;14.32;;;6.45;;
43905;SDS011;29564;46.622;13.818;2024-01-11T21:47:18;10.93;;;6.30;;
43905;SDS011;29564;46.622;13.818;2024-01-11T21:48:20;17.40;;;6.88;;
43905;SDS011;29564;46.622;13.818;2024-01-11T21:49:22;13.65;;;6.20;;
43905;SDS011;29564;46.622;13.818;2024-01-11T21:50:24;10.05;;;5.75;;
43905;SDS011;29564;46.622;13.818;2024-01-11T21:51:25;15.20;;;6.05;;
43905;SDS011;29564;46.622;13.818;2024-01-11T21:52:27;25.08;;;9.73;;
43905;SDS011;29564;46.622;13.818;2024-01-11T21:53:29;33.03;;;13.50;;